首页
METAR-TAF:

METAR-TAF

机场 :

Homestead, 佛罗里达州, 美国

纬度: 25-29N, 经度: 080-23W, 海拔: 2米

当前天气观测

该预报发布于51分钟前的08:55 UTC
风速9节,风向
温度 28°C
湿度 74%
气压 1013 hPa
能見度: 16.1公里
少量云层高于2200英尺
散云层高于3700英尺
散云层高于7000英尺

METAR: KHST 190855Z AUTO 10009KT 10SM FEW022 SCT037 SCT070 28/23 A2990 RMK AO2 SLP128 T02830234 57005 $

时间: 05:46 (09:46 UTC)

预报

该预报发布于14小时和46分钟前的19:00 UTC
预报有效从18日的 19点(UTC)到 20日的 01点(UTC)
风速12节,风向,有时为18节阵风
能见度10公里或以上
散云层高于2500英尺
散云层高于4000英尺
成为
从 18日的 23点(UTC)到 18日的 24点(UTC)
风速15节,风向
能见度10公里或以上
散云层高于2500英尺
散云层高于4000英尺
散云层高于20000英尺
成为
从 19日的 14点(UTC)到 19日的 15点(UTC)
风速15节,风向,有时为23节阵风
能见度10公里或以上
散云层高于2500英尺
多云层高于4000英尺
附近有阵雨
短暂存在
从 19日的 18点(UTC)到 19日的 23点(UTC)
风速15节,风向多变,有时为25节阵风
能見度: 6000
多云层高于2500英尺, 积雨云.
小阵雨, 附近有雷暴
成为
从 19日的 22点(UTC)到 19日的 23点(UTC)
风速12节,风向
能见度10公里或以上
散云层高于2500英尺
散云层高于10000英尺

TAF: KHST 181900Z 1819/2001 08012G18KT 9999 SCT025 SCT040 QNH2988INS BECMG 1823/1824 08015KT 9999 SCT025 SCT040 SCT200 QNH2990INS BECMG 1914/1915 08015G23KT 9999 VCSH SCT025 BKN040 QNH2993INS TEMPO 1918/1923 VRB15G25KT 6000 -SHRA VCTS BKN025CB BECMG 1922/1923 08012KT 9999 NSW SCT025 SCT100 QNH2993INS TX31/1819Z TN27/1911Z

超过4000个机场的气象观测和天气预报(METAR&TAF报告)。

可查询的气象台以黄色和红色小点在地图上表示。

将鼠标移到小点上方,可查看气象台名称。

然后点击查看天气观测和预报。

如需切换地图:点击带黑十字的绿色按钮放大地图;点击带横线的绿色按钮缩小地图;或者点击绿色箭头查看邻近地区的地图。


METAR-TAF: